Terminal Aerodrome Forecast
Issued by NWS

Home | Current Version | Previous Version | Text Only | Print | Product List | Glossary Off
Versions: 1 2 3 4 5 6 7 8 9 10 11 12 13 14 15 16 17 18 19 20 21 22 23 24 25

384
FTUS43 KLOT 251730
TAFORD
TAF
KORD 251730Z 2518/2624 17012G18KT P6SM BKN250
     FM252100 15014G20KT P6SM FEW040 BKN180
     FM260100 16010KT P6SM SCT050 BKN150
     FM261500 18014G20KT P6SM VCSH SCT015 BKN040 PROB30 2616/2620
      4SM -TSRA BKN035CB
     FM262000 19015G25KT P6SM VCTS SCT040CB BKN080
      TEMPO 2621/2624 4SM -TSRA BKN035CB OVC060=

USA.gov is the U.S. government's official web portal to all federal, state and local government web resources and services.